sensor_id;sensor_type;location;lat;lon;timestamp;P1;durP1;ratioP1;P2;durP2;ratioP2
62788;SDS011;66401;42.016;21.454;2023-05-07T00:01:44;14.90;;;7.83;;
62788;SDS011;66401;42.016;21.454;2023-05-07T00:04:11;10.17;;;6.80;;
62788;SDS011;66401;42.016;21.454;2023-05-07T00:06:38;13.67;;;7.23;;
62788;SDS011;66401;42.016;21.454;2023-05-07T00:09:05;8.13;;;5.77;;
62788;SDS011;66401;42.016;21.454;2023-05-07T00:11:30;6.87;;;5.23;;
62788;SDS011;66401;42.016;21.454;2023-05-07T00:13:58;7.47;;;5.77;;
62788;SDS011;66401;42.016;21.454;2023-05-07T00:16:24;10.43;;;5.70;;
62788;SDS011;66401;42.016;21.454;2023-05-07T00:18:54;9.73;;;5.20;;
62788;SDS011;66401;42.016;21.454;2023-05-07T00:21:20;6.80;;;4.40;;
62788;SDS011;66401;42.016;21.454;2023-05-07T00:23:46;6.40;;;4.83;;
62788;SDS011;66401;42.016;21.454;2023-05-07T00:26:12;8.73;;;5.60;;
62788;SDS011;66401;42.016;21.454;2023-05-07T00:28:37;11.23;;;6.37;;
62788;SDS011;66401;42.016;21.454;2023-05-07T00:31:03;8.17;;;5.57;;
62788;SDS011;66401;42.016;21.454;2023-05-07T00:33:28;9.23;;;6.43;;
62788;SDS011;66401;42.016;21.454;2023-05-07T00:35:53;7.53;;;5.83;;
62788;SDS011;66401;42.016;21.454;2023-05-07T00:38:19;6.97;;;5.40;;
62788;SDS011;66401;42.016;21.454;2023-05-07T00:40:45;9.33;;;5.97;;
62788;SDS011;66401;42.016;21.454;2023-05-07T00:43:10;10.00;;;6.03;;
62788;SDS011;66401;42.016;21.454;2023-05-07T00:45:37;9.17;;;5.80;;
62788;SDS011;66401;42.016;21.454;2023-05-07T00:48:03;5.93;;;5.43;;
62788;SDS011;66401;42.016;21.454;2023-05-07T00:50:29;8.00;;;5.90;;
62788;SDS011;66401;42.016;21.454;2023-05-07T00:52:55;7.57;;;5.90;;
62788;SDS011;66401;42.016;21.454;2023-05-07T00:55:21;12.20;;;5.97;;
62788;SDS011;66401;42.016;21.454;2023-05-07T00:57:48;10.53;;;6.13;;
62788;SDS011;66401;42.016;21.454;2023-05-07T01:00:14;6.90;;;5.20;;
62788;SDS011;66401;42.016;21.454;2023-05-07T01:02:40;5.90;;;4.67;;
62788;SDS011;66401;42.016;21.454;2023-05-07T01:05:07;10.67;;;5.63;;
62788;SDS011;66401;42.016;21.454;2023-05-07T01:07:36;6.57;;;5.23;;
62788;SDS011;66401;42.016;21.454;2023-05-07T01:10:04;7.33;;;5.33;;
62788;SDS011;66401;42.016;21.454;2023-05-07T01:12:31;5.67;;;4.97;;
62788;SDS011;66401;42.016;21.454;2023-05-07T01:14:57;8.63;;;6.03;;
62788;SDS011;66401;42.016;21.454;2023-05-07T01:17:23;8.23;;;6.07;;
62788;SDS011;66401;42.016;21.454;2023-05-07T01:19:49;7.37;;;5.30;;
62788;SDS011;66401;42.016;21.454;2023-05-07T01:22:15;7.73;;;5.27;;
62788;SDS011;66401;42.016;21.454;2023-05-07T01:24:42;9.67;;;6.27;;
62788;SDS011;66401;42.016;21.454;2023-05-07T01:27:08;9.07;;;6.27;;
62788;SDS011;66401;42.016;21.454;2023-05-07T01:29:33;10.23;;;5.87;;
62788;SDS011;66401;42.016;21.454;2023-05-07T01:31:59;8.17;;;6.03;;
62788;SDS011;66401;42.016;21.454;2023-05-07T01:34:27;7.73;;;5.80;;
62788;SDS011;66401;42.016;21.454;2023-05-07T01:36:55;7.73;;;5.80;;
62788;SDS011;66401;42.016;21.454;2023-05-07T01:39:27;6.90;;;6.00;;
62788;SDS011;66401;42.016;21.454;2023-05-07T01:41:54;8.83;;;5.97;;
62788;SDS011;66401;42.016;21.454;2023-05-07T01:44:21;10.37;;;5.63;;
62788;SDS011;66401;42.016;21.454;2023-05-07T01:46:47;7.43;;;5.73;;
62788;SDS011;66401;42.016;21.454;2023-05-07T01:49:13;9.77;;;6.17;;
62788;SDS011;66401;42.016;21.454;2023-05-07T01:51:39;8.57;;;6.00;;
62788;SDS011;66401;42.016;21.454;2023-05-07T01:54:05;11.20;;;6.63;;
62788;SDS011;66401;42.016;21.454;2023-05-07T01:56:31;8.07;;;5.43;;
62788;SDS011;66401;42.016;21.454;2023-05-07T01:58:57;7.87;;;5.47;;
62788;SDS011;66401;42.016;21.454;2023-05-07T02:01:22;6.93;;;5.90;;
62788;SDS011;66401;42.016;21.454;2023-05-07T02:03:48;9.43;;;6.03;;
62788;SDS011;66401;42.016;21.454;2023-05-07T02:06:14;10.70;;;6.37;;
62788;SDS011;66401;42.016;21.454;2023-05-07T02:08:40;10.13;;;4.93;;
62788;SDS011;66401;42.016;21.454;2023-05-07T02:11:05;8.87;;;6.37;;
62788;SDS011;66401;42.016;21.454;2023-05-07T02:13:32;6.57;;;5.50;;
62788;SDS011;66401;42.016;21.454;2023-05-07T02:15:59;8.73;;;6.40;;
62788;SDS011;66401;42.016;21.454;2023-05-07T02:18:25;11.17;;;6.93;;
62788;SDS011;66401;42.016;21.454;2023-05-07T02:20:50;16.10;;;7.93;;
62788;SDS011;66401;42.016;21.454;2023-05-07T02:23:16;10.53;;;7.00;;
62788;SDS011;66401;42.016;21.454;2023-05-07T02:25:41;11.67;;;8.00;;
62788;SDS011;66401;42.016;21.454;2023-05-07T02:28:07;11.13;;;7.47;;
62788;SDS011;66401;42.016;21.454;2023-05-07T02:30:32;10.30;;;7.57;;
62788;SDS011;66401;42.016;21.454;2023-05-07T02:32:58;11.73;;;7.70;;
62788;SDS011;66401;42.016;21.454;2023-05-07T02:35:24;11.03;;;7.83;;
62788;SDS011;66401;42.016;21.454;2023-05-07T02:37:50;11.80;;;7.37;;
62788;SDS011;66401;42.016;21.454;2023-05-07T02:40:15;10.40;;;7.10;;
62788;SDS011;66401;42.016;21.454;2023-05-07T02:42:41;10.20;;;7.27;;
62788;SDS011;66401;42.016;21.454;2023-05-07T02:45:06;10.40;;;7.17;;
62788;SDS011;66401;42.016;21.454;2023-05-07T02:47:32;9.23;;;6.77;;
62788;SDS011;66401;42.016;21.454;2023-05-07T02:49:58;11.40;;;7.27;;
62788;SDS011;66401;42.016;21.454;2023-05-07T02:52:23;8.07;;;6.70;;
62788;SDS011;66401;42.016;21.454;2023-05-07T02:54:49;10.53;;;7.27;;
62788;SDS011;66401;42.016;21.454;2023-05-07T02:57:14;9.17;;;6.83;;
62788;SDS011;66401;42.016;21.454;2023-05-07T02:59:40;11.80;;;8.57;;
62788;SDS011;66401;42.016;21.454;2023-05-07T03:02:07;12.20;;;7.57;;
62788;SDS011;66401;42.016;21.454;2023-05-07T03:04:32;9.17;;;7.33;;
62788;SDS011;66401;42.016;21.454;2023-05-07T03:06:58;10.77;;;7.20;;
62788;SDS011;66401;42.016;21.454;2023-05-07T03:09:23;16.93;;;9.13;;
62788;SDS011;66401;42.016;21.454;2023-05-07T03:11:49;12.23;;;7.77;;
62788;SDS011;66401;42.016;21.454;2023-05-07T03:14:14;11.03;;;7.47;;
62788;SDS011;66401;42.016;21.454;2023-05-07T03:16:40;12.67;;;8.30;;
62788;SDS011;66401;42.016;21.454;2023-05-07T03:19:05;12.37;;;8.63;;
62788;SDS011;66401;42.016;21.454;2023-05-07T03:21:31;12.67;;;8.33;;
62788;SDS011;66401;42.016;21.454;2023-05-07T03:23:58;12.00;;;8.30;;
62788;SDS011;66401;42.016;21.454;2023-05-07T03:26:24;14.50;;;8.07;;
62788;SDS011;66401;42.016;21.454;2023-05-07T03:28:50;10.93;;;8.07;;
62788;SDS011;66401;42.016;21.454;2023-05-07T03:31:16;12.07;;;8.43;;
62788;SDS011;66401;42.016;21.454;2023-05-07T03:33:51;14.87;;;8.20;;
62788;SDS011;66401;42.016;21.454;2023-05-07T03:36:18;10.93;;;7.77;;
62788;SDS011;66401;42.016;21.454;2023-05-07T03:38:44;11.03;;;7.27;;
62788;SDS011;66401;42.016;21.454;2023-05-07T03:41:10;14.33;;;8.00;;
62788;SDS011;66401;42.016;21.454;2023-05-07T03:43:35;14.23;;;8.17;;
62788;SDS011;66401;42.016;21.454;2023-05-07T03:46:01;11.27;;;7.47;;
62788;SDS011;66401;42.016;21.454;2023-05-07T03:48:26;13.67;;;8.07;;
62788;SDS011;66401;42.016;21.454;2023-05-07T03:50:52;11.77;;;7.50;;
62788;SDS011;66401;42.016;21.454;2023-05-07T03:53:18;9.30;;;7.97;;
62788;SDS011;66401;42.016;21.454;2023-05-07T03:55:43;12.23;;;7.80;;
62788;SDS011;66401;42.016;21.454;2023-05-07T03:58:09;16.23;;;8.20;;
62788;SDS011;66401;42.016;21.454;2023-05-07T04:00:34;13.33;;;8.60;;
62788;SDS011;66401;42.016;21.454;2023-05-07T04:03:03;14.03;;;8.17;;
62788;SDS011;66401;42.016;21.454;2023-05-07T04:05:30;13.83;;;8.97;;
62788;SDS011;66401;42.016;21.454;2023-05-07T04:07:57;12.40;;;8.50;;
62788;SDS011;66401;42.016;21.454;2023-05-07T04:10:23;12.10;;;8.77;;
62788;SDS011;66401;42.016;21.454;2023-05-07T04:12:49;9.27;;;7.50;;
62788;SDS011;66401;42.016;21.454;2023-05-07T04:15:14;11.63;;;8.50;;
62788;SDS011;66401;42.016;21.454;2023-05-07T04:17:40;12.50;;;8.63;;
62788;SDS011;66401;42.016;21.454;2023-05-07T04:20:08;16.20;;;8.83;;
62788;SDS011;66401;42.016;21.454;2023-05-07T04:22:35;13.87;;;8.40;;
62788;SDS011;66401;42.016;21.454;2023-05-07T04:25:01;12.73;;;8.57;;
62788;SDS011;66401;42.016;21.454;2023-05-07T04:27:27;11.03;;;7.80;;
62788;SDS011;66401;42.016;21.454;2023-05-07T04:29:53;14.43;;;8.00;;
62788;SDS011;66401;42.016;21.454;2023-05-07T04:32:20;11.60;;;8.00;;
62788;SDS011;66401;42.016;21.454;2023-05-07T04:34:46;9.90;;;7.43;;
62788;SDS011;66401;42.016;21.454;2023-05-07T04:37:12;9.13;;;6.47;;
62788;SDS011;66401;42.016;21.454;2023-05-07T04:39:37;11.87;;;7.30;;
62788;SDS011;66401;42.016;21.454;2023-05-07T04:42:03;12.30;;;7.97;;
62788;SDS011;66401;42.016;21.454;2023-05-07T04:44:28;11.73;;;8.27;;
62788;SDS011;66401;42.016;21.454;2023-05-07T04:46:56;16.17;;;7.93;;
62788;SDS011;66401;42.016;21.454;2023-05-07T04:49:21;13.27;;;8.13;;
62788;SDS011;66401;42.016;21.454;2023-05-07T04:51:47;12.97;;;7.73;;
62788;SDS011;66401;42.016;21.454;2023-05-07T04:54:13;11.93;;;8.10;;
62788;SDS011;66401;42.016;21.454;2023-05-07T04:56:38;11.40;;;7.57;;
62788;SDS011;66401;42.016;21.454;2023-05-07T04:59:04;10.70;;;7.33;;
62788;SDS011;66401;42.016;21.454;2023-05-07T05:01:29;14.63;;;7.80;;
62788;SDS011;66401;42.016;21.454;2023-05-07T05:03:55;10.33;;;7.93;;
62788;SDS011;66401;42.016;21.454;2023-05-07T05:06:20;13.23;;;8.07;;
62788;SDS011;66401;42.016;21.454;2023-05-07T05:08:46;12.13;;;7.50;;
62788;SDS011;66401;42.016;21.454;2023-05-07T05:11:11;13.60;;;7.40;;
62788;SDS011;66401;42.016;21.454;2023-05-07T05:13:37;11.87;;;7.33;;
62788;SDS011;66401;42.016;21.454;2023-05-07T05:16:02;11.23;;;7.27;;
62788;SDS011;66401;42.016;21.454;2023-05-07T05:18:28;10.13;;;6.67;;
62788;SDS011;66401;42.016;21.454;2023-05-07T05:20:53;10.00;;;6.87;;
62788;SDS011;66401;42.016;21.454;2023-05-07T05:23:19;9.67;;;6.90;;
62788;SDS011;66401;42.016;21.454;2023-05-07T05:25:45;8.40;;;6.17;;
62788;SDS011;66401;42.016;21.454;2023-05-07T05:28:10;10.87;;;7.07;;
62788;SDS011;66401;42.016;21.454;2023-05-07T05:30:36;11.47;;;7.57;;
62788;SDS011;66401;42.016;21.454;2023-05-07T05:33:01;10.73;;;7.30;;
62788;SDS011;66401;42.016;21.454;2023-05-07T05:35:27;11.23;;;7.13;;
62788;SDS011;66401;42.016;21.454;2023-05-07T05:37:52;12.23;;;7.83;;
62788;SDS011;66401;42.016;21.454;2023-05-07T05:40:18;11.83;;;7.90;;
62788;SDS011;66401;42.016;21.454;2023-05-07T05:42:43;10.10;;;6.77;;
62788;SDS011;66401;42.016;21.454;2023-05-07T05:45:09;9.50;;;7.63;;
62788;SDS011;66401;42.016;21.454;2023-05-07T05:47:35;12.43;;;7.73;;
62788;SDS011;66401;42.016;21.454;2023-05-07T05:50:00;12.93;;;8.00;;
62788;SDS011;66401;42.016;21.454;2023-05-07T05:52:26;10.50;;;8.07;;
62788;SDS011;66401;42.016;21.454;2023-05-07T05:54:51;11.53;;;7.83;;
62788;SDS011;66401;42.016;21.454;2023-05-07T05:57:17;9.83;;;7.23;;
62788;SDS011;66401;42.016;21.454;2023-05-07T05:59:43;10.50;;;7.50;;
62788;SDS011;66401;42.016;21.454;2023-05-07T06:02:10;13.30;;;7.97;;
62788;SDS011;66401;42.016;21.454;2023-05-07T06:04:35;11.20;;;7.60;;
62788;SDS011;66401;42.016;21.454;2023-05-07T06:07:01;18.60;;;7.80;;
62788;SDS011;66401;42.016;21.454;2023-05-07T06:09:26;13.00;;;8.47;;
62788;SDS011;66401;42.016;21.454;2023-05-07T06:11:52;9.17;;;7.43;;
62788;SDS011;66401;42.016;21.454;2023-05-07T06:14:17;10.37;;;7.07;;
62788;SDS011;66401;42.016;21.454;2023-05-07T06:16:43;17.37;;;7.70;;
62788;SDS011;66401;42.016;21.454;2023-05-07T06:19:09;10.57;;;8.77;;
62788;SDS011;66401;42.016;21.454;2023-05-07T06:21:34;9.43;;;7.30;;
62788;SDS011;66401;42.016;21.454;2023-05-07T06:24:00;12.20;;;7.37;;
62788;SDS011;66401;42.016;21.454;2023-05-07T06:26:25;11.83;;;8.23;;
62788;SDS011;66401;42.016;21.454;2023-05-07T06:28:51;10.80;;;7.57;;
62788;SDS011;66401;42.016;21.454;2023-05-07T06:31:19;12.37;;;7.67;;
62788;SDS011;66401;42.016;21.454;2023-05-07T06:33:48;10.97;;;7.53;;
62788;SDS011;66401;42.016;21.454;2023-05-07T06:36:14;9.93;;;7.17;;
62788;SDS011;66401;42.016;21.454;2023-05-07T06:38:39;8.90;;;6.73;;
62788;SDS011;66401;42.016;21.454;2023-05-07T06:41:05;10.07;;;6.57;;
62788;SDS011;66401;42.016;21.454;2023-05-07T06:43:31;10.57;;;7.37;;
62788;SDS011;66401;42.016;21.454;2023-05-07T06:45:57;9.03;;;6.10;;
62788;SDS011;66401;42.016;21.454;2023-05-07T06:48:22;10.40;;;7.20;;
62788;SDS011;66401;42.016;21.454;2023-05-07T06:50:48;8.03;;;6.67;;
62788;SDS011;66401;42.016;21.454;2023-05-07T06:53:13;9.77;;;6.43;;
62788;SDS011;66401;42.016;21.454;2023-05-07T06:55:39;10.13;;;6.63;;
62788;SDS011;66401;42.016;21.454;2023-05-07T06:58:04;9.80;;;6.00;;
62788;SDS011;66401;42.016;21.454;2023-05-07T07:00:31;9.37;;;6.80;;
62788;SDS011;66401;42.016;21.454;2023-05-07T07:02:56;11.10;;;6.73;;
62788;SDS011;66401;42.016;21.454;2023-05-07T07:05:22;9.93;;;7.40;;
62788;SDS011;66401;42.016;21.454;2023-05-07T07:07:47;13.00;;;6.90;;
62788;SDS011;66401;42.016;21.454;2023-05-07T07:10:18;9.93;;;6.73;;
62788;SDS011;66401;42.016;21.454;2023-05-07T07:12:46;13.97;;;7.03;;
62788;SDS011;66401;42.016;21.454;2023-05-07T07:15:15;10.03;;;6.47;;
62788;SDS011;66401;42.016;21.454;2023-05-07T07:17:41;9.17;;;6.17;;
62788;SDS011;66401;42.016;21.454;2023-05-07T07:20:07;7.73;;;6.50;;
62788;SDS011;66401;42.016;21.454;2023-05-07T07:22:33;6.30;;;5.70;;
62788;SDS011;66401;42.016;21.454;2023-05-07T07:24:58;8.47;;;5.60;;
62788;SDS011;66401;42.016;21.454;2023-05-07T07:27:24;9.10;;;6.70;;
62788;SDS011;66401;42.016;21.454;2023-05-07T07:29:50;7.47;;;6.53;;
62788;SDS011;66401;42.016;21.454;2023-05-07T07:32:15;8.20;;;5.90;;
62788;SDS011;66401;42.016;21.454;2023-05-07T07:34:44;8.40;;;5.73;;
62788;SDS011;66401;42.016;21.454;2023-05-07T07:37:09;6.60;;;5.90;;
62788;SDS011;66401;42.016;21.454;2023-05-07T07:39:35;11.93;;;6.30;;
62788;SDS011;66401;42.016;21.454;2023-05-07T07:42:02;11.33;;;6.47;;
62788;SDS011;66401;42.016;21.454;2023-05-07T07:44:28;7.83;;;6.30;;
62788;SDS011;66401;42.016;21.454;2023-05-07T07:46:53;8.17;;;5.93;;
62788;SDS011;66401;42.016;21.454;2023-05-07T07:49:19;9.90;;;5.90;;
62788;SDS011;66401;42.016;21.454;2023-05-07T07:51:45;8.53;;;6.23;;
62788;SDS011;66401;42.016;21.454;2023-05-07T07:54:10;8.47;;;6.07;;
62788;SDS011;66401;42.016;21.454;2023-05-07T07:56:36;8.73;;;5.63;;
62788;SDS011;66401;42.016;21.454;2023-05-07T07:59:01;8.40;;;6.00;;
62788;SDS011;66401;42.016;21.454;2023-05-07T08:01:29;8.77;;;5.87;;
62788;SDS011;66401;42.016;21.454;2023-05-07T08:03:55;8.13;;;5.60;;
62788;SDS011;66401;42.016;21.454;2023-05-07T08:06:22;7.67;;;5.50;;
62788;SDS011;66401;42.016;21.454;2023-05-07T08:08:48;9.63;;;5.57;;
62788;SDS011;66401;42.016;21.454;2023-05-07T08:11:14;5.47;;;4.93;;
62788;SDS011;66401;42.016;21.454;2023-05-07T08:13:39;8.77;;;4.97;;
62788;SDS011;66401;42.016;21.454;2023-05-07T08:16:05;5.50;;;5.00;;
62788;SDS011;66401;42.016;21.454;2023-05-07T08:18:31;5.70;;;5.20;;
62788;SDS011;66401;42.016;21.454;2023-05-07T08:20:56;5.03;;;4.63;;
62788;SDS011;66401;42.016;21.454;2023-05-07T08:23:22;7.23;;;5.27;;
62788;SDS011;66401;42.016;21.454;2023-05-07T08:25:48;7.30;;;5.00;;
62788;SDS011;66401;42.016;21.454;2023-05-07T08:28:14;5.47;;;4.97;;
62788;SDS011;66401;42.016;21.454;2023-05-07T08:30:40;5.67;;;4.90;;
62788;SDS011;66401;42.016;21.454;2023-05-07T08:33:06;6.53;;;5.63;;
62788;SDS011;66401;42.016;21.454;2023-05-07T08:35:33;5.37;;;4.50;;
62788;SDS011;66401;42.016;21.454;2023-05-07T08:37:58;6.20;;;5.60;;
62788;SDS011;66401;42.016;21.454;2023-05-07T08:40:24;6.23;;;5.63;;
62788;SDS011;66401;42.016;21.454;2023-05-07T08:42:52;5.20;;;4.70;;
62788;SDS011;66401;42.016;21.454;2023-05-07T08:45:19;7.27;;;5.33;;
62788;SDS011;66401;42.016;21.454;2023-05-07T08:47:52;6.17;;;5.57;;
62788;SDS011;66401;42.016;21.454;2023-05-07T08:50:23;7.27;;;4.60;;
62788;SDS011;66401;42.016;21.454;2023-05-07T08:52:51;5.20;;;4.70;;
62788;SDS011;66401;42.016;21.454;2023-05-07T08:55:17;6.00;;;5.40;;
62788;SDS011;66401;42.016;21.454;2023-05-07T08:57:43;6.70;;;5.40;;
62788;SDS011;66401;42.016;21.454;2023-05-07T09:00:09;5.73;;;4.93;;
62788;SDS011;66401;42.016;21.454;2023-05-07T09:02:36;6.17;;;5.53;;
62788;SDS011;66401;42.016;21.454;2023-05-07T09:05:02;6.53;;;5.93;;
62788;SDS011;66401;42.016;21.454;2023-05-07T09:07:28;5.77;;;5.13;;
62788;SDS011;66401;42.016;21.454;2023-05-07T09:09:55;5.90;;;5.23;;
62788;SDS011;66401;42.016;21.454;2023-05-07T09:12:22;5.90;;;5.40;;
62788;SDS011;66401;42.016;21.454;2023-05-07T09:14:47;7.30;;;5.07;;
62788;SDS011;66401;42.016;21.454;2023-05-07T09:17:14;6.90;;;5.03;;
62788;SDS011;66401;42.016;21.454;2023-05-07T09:19:44;6.07;;;4.87;;
62788;SDS011;66401;42.016;21.454;2023-05-07T09:22:13;4.93;;;4.30;;
62788;SDS011;66401;42.016;21.454;2023-05-07T09:24:39;5.37;;;4.60;;
62788;SDS011;66401;42.016;21.454;2023-05-07T09:27:05;6.90;;;4.37;;
62788;SDS011;66401;42.016;21.454;2023-05-07T09:29:31;5.27;;;4.80;;
62788;SDS011;66401;42.016;21.454;2023-05-07T09:32:01;6.63;;;4.70;;
62788;SDS011;66401;42.016;21.454;2023-05-07T09:34:28;5.27;;;4.50;;
62788;SDS011;66401;42.016;21.454;2023-05-07T09:36:54;4.57;;;4.20;;
62788;SDS011;66401;42.016;21.454;2023-05-07T09:39:21;7.17;;;5.50;;
62788;SDS011;66401;42.016;21.454;2023-05-07T09:41:48;6.73;;;5.10;;
62788;SDS011;66401;42.016;21.454;2023-05-07T09:44:15;5.10;;;4.33;;
62788;SDS011;66401;42.016;21.454;2023-05-07T09:46:44;5.30;;;4.77;;
62788;SDS011;66401;42.016;21.454;2023-05-07T09:49:20;6.10;;;4.80;;
62788;SDS011;66401;42.016;21.454;2023-05-07T09:51:49;5.20;;;4.70;;
62788;SDS011;66401;42.016;21.454;2023-05-07T09:54:17;6.20;;;4.67;;
62788;SDS011;66401;42.016;21.454;2023-05-07T09:56:44;5.53;;;4.40;;
62788;SDS011;66401;42.016;21.454;2023-05-07T09:59:10;4.83;;;4.43;;
62788;SDS011;66401;42.016;21.454;2023-05-07T10:01:38;4.63;;;4.23;;
62788;SDS011;66401;42.016;21.454;2023-05-07T10:04:05;4.97;;;4.43;;
62788;SDS011;66401;42.016;21.454;2023-05-07T10:06:33;4.57;;;4.17;;
62788;SDS011;66401;42.016;21.454;2023-05-07T10:09:00;4.23;;;3.80;;
62788;SDS011;66401;42.016;21.454;2023-05-07T10:11:26;4.47;;;4.07;;
62788;SDS011;66401;42.016;21.454;2023-05-07T10:13:53;4.93;;;4.43;;
62788;SDS011;66401;42.016;21.454;2023-05-07T10:16:19;4.40;;;4.00;;
62788;SDS011;66401;42.016;21.454;2023-05-07T10:18:46;7.93;;;4.53;;
62788;SDS011;66401;42.016;21.454;2023-05-07T10:21:17;4.43;;;4.03;;
62788;SDS011;66401;42.016;21.454;2023-05-07T10:23:50;3.70;;;3.40;;
62788;SDS011;66401;42.016;21.454;2023-05-07T10:26:23;4.97;;;4.13;;
62788;SDS011;66401;42.016;21.454;2023-05-07T10:28:53;5.20;;;4.40;;
62788;SDS011;66401;42.016;21.454;2023-05-07T10:34:26;4.10;;;3.73;;
62788;SDS011;66401;42.016;21.454;2023-05-07T10:36:59;5.97;;;3.80;;
62788;SDS011;66401;42.016;21.454;2023-05-07T10:39:25;4.50;;;3.87;;
62788;SDS011;66401;42.016;21.454;2023-05-07T10:41:52;5.30;;;4.03;;
62788;SDS011;66401;42.016;21.454;2023-05-07T10:44:29;4.17;;;3.70;;
62788;SDS011;66401;42.016;21.454;2023-05-07T10:47:05;4.67;;;4.20;;
62788;SDS011;66401;42.016;21.454;2023-05-07T10:49:31;4.57;;;4.00;;
62788;SDS011;66401;42.016;21.454;2023-05-07T10:54:42;4.10;;;3.70;;
62788;SDS011;66401;42.016;21.454;2023-05-07T10:59:53;6.13;;;3.97;;
62788;SDS011;66401;42.016;21.454;2023-05-07T11:02:19;5.67;;;4.20;;
62788;SDS011;66401;42.016;21.454;2023-05-07T12:58:28;4.03;;;3.73;;
62788;SDS011;66401;42.016;21.454;2023-05-07T13:00:56;3.53;;;3.23;;
62788;SDS011;66401;42.016;21.454;2023-05-07T13:05:57;4.00;;;3.60;;
62788;SDS011;66401;42.016;21.454;2023-05-07T13:08:34;3.37;;;3.00;;
62788;SDS011;66401;42.016;21.454;2023-05-07T13:11:02;4.43;;;4.03;;
62788;SDS011;66401;42.016;21.454;2023-05-07T13:13:32;5.97;;;3.70;;
62788;SDS011;66401;42.016;21.454;2023-05-07T13:27:37;3.43;;;3.13;;
62788;SDS011;66401;42.016;21.454;2023-05-07T13:30:03;3.23;;;2.93;;
62788;SDS011;66401;42.016;21.454;2023-05-07T13:32:30;3.57;;;3.27;;
62788;SDS011;66401;42.016;21.454;2023-05-07T13:34:56;3.77;;;3.23;;
62788;SDS011;66401;42.016;21.454;2023-05-07T13:37:22;4.10;;;3.33;;
62788;SDS011;66401;42.016;21.454;2023-05-07T13:39:47;3.47;;;3.27;;
62788;SDS011;66401;42.016;21.454;2023-05-07T13:42:13;3.90;;;3.47;;
62788;SDS011;66401;42.016;21.454;2023-05-07T13:44:39;3.70;;;3.37;;
62788;SDS011;66401;42.016;21.454;2023-05-07T13:47:04;4.03;;;3.63;;
62788;SDS011;66401;42.016;21.454;2023-05-07T13:49:30;4.97;;;3.53;;
62788;SDS011;66401;42.016;21.454;2023-05-07T13:51:56;3.50;;;3.30;;
62788;SDS011;66401;42.016;21.454;2023-05-07T13:54:21;3.63;;;3.33;;
62788;SDS011;66401;42.016;21.454;2023-05-07T13:56:47;3.73;;;3.43;;
62788;SDS011;66401;42.016;21.454;2023-05-07T13:59:12;3.50;;;3.23;;
62788;SDS011;66401;42.016;21.454;2023-05-07T14:01:39;2.90;;;2.70;;
62788;SDS011;66401;42.016;21.454;2023-05-07T14:04:04;3.67;;;3.37;;
62788;SDS011;66401;42.016;21.454;2023-05-07T14:06:30;2.93;;;2.80;;
62788;SDS011;66401;42.016;21.454;2023-05-07T14:08:56;4.27;;;3.63;;
62788;SDS011;66401;42.016;21.454;2023-05-07T14:11:23;3.63;;;3.30;;
62788;SDS011;66401;42.016;21.454;2023-05-07T14:13:48;3.60;;;3.30;;
62788;SDS011;66401;42.016;21.454;2023-05-07T14:16:14;4.63;;;3.60;;
62788;SDS011;66401;42.016;21.454;2023-05-07T14:18:40;3.73;;;3.43;;
62788;SDS011;66401;42.016;21.454;2023-05-07T14:21:05;3.73;;;3.43;;
62788;SDS011;66401;42.016;21.454;2023-05-07T14:23:34;5.77;;;3.33;;
62788;SDS011;66401;42.016;21.454;2023-05-07T14:26:00;4.43;;;3.87;;
62788;SDS011;66401;42.016;21.454;2023-05-07T14:28:26;3.97;;;3.23;;
62788;SDS011;66401;42.016;21.454;2023-05-07T14:30:51;3.67;;;3.37;;
62788;SDS011;66401;42.016;21.454;2023-05-07T14:33:17;4.00;;;3.60;;
62788;SDS011;66401;42.016;21.454;2023-05-07T14:35:42;4.13;;;3.83;;
62788;SDS011;66401;42.016;21.454;2023-05-07T14:38:13;3.77;;;3.33;;
62788;SDS011;66401;42.016;21.454;2023-05-07T14:40:39;3.30;;;3.10;;
62788;SDS011;66401;42.016;21.454;2023-05-07T14:43:04;3.47;;;3.17;;
62788;SDS011;66401;42.016;21.454;2023-05-07T14:45:30;5.43;;;3.97;;
62788;SDS011;66401;42.016;21.454;2023-05-07T14:47:55;4.13;;;3.73;;
62788;SDS011;66401;42.016;21.454;2023-05-07T14:50:21;4.00;;;3.60;;
62788;SDS011;66401;42.016;21.454;2023-05-07T14:52:47;3.70;;;3.40;;
62788;SDS011;66401;42.016;21.454;2023-05-07T14:55:12;4.27;;;3.87;;
62788;SDS011;66401;42.016;21.454;2023-05-07T14:57:38;4.03;;;3.63;;
62788;SDS011;66401;42.016;21.454;2023-05-07T15:00:03;3.57;;;3.17;;
62788;SDS011;66401;42.016;21.454;2023-05-07T15:02:29;5.67;;;4.13;;
62788;SDS011;66401;42.016;21.454;2023-05-07T15:04:55;4.17;;;3.87;;
62788;SDS011;66401;42.016;21.454;2023-05-07T15:07:20;3.73;;;3.43;;
62788;SDS011;66401;42.016;21.454;2023-05-07T15:09:46;4.37;;;3.97;;
62788;SDS011;66401;42.016;21.454;2023-05-07T15:12:12;4.07;;;3.60;;
62788;SDS011;66401;42.016;21.454;2023-05-07T15:14:38;4.97;;;4.10;;
62788;SDS011;66401;42.016;21.454;2023-05-07T15:17:04;5.10;;;4.60;;
62788;SDS011;66401;42.016;21.454;2023-05-07T15:19:30;3.70;;;3.40;;
62788;SDS011;66401;42.016;21.454;2023-05-07T15:21:59;4.80;;;4.40;;
62788;SDS011;66401;42.016;21.454;2023-05-07T15:24:27;4.97;;;3.77;;
62788;SDS011;66401;42.016;21.454;2023-05-07T15:26:54;4.53;;;3.40;;
62788;SDS011;66401;42.016;21.454;2023-05-07T15:29:19;5.33;;;3.90;;
62788;SDS011;66401;42.016;21.454;2023-05-07T15:31:45;4.20;;;3.43;;
62788;SDS011;66401;42.016;21.454;2023-05-07T15:34:11;3.60;;;3.33;;
62788;SDS011;66401;42.016;21.454;2023-05-07T15:36:36;4.10;;;3.77;;
62788;SDS011;66401;42.016;21.454;2023-05-07T15:39:02;7.43;;;4.97;;
62788;SDS011;66401;42.016;21.454;2023-05-07T15:41:28;4.00;;;3.60;;
62788;SDS011;66401;42.016;21.454;2023-05-07T15:43:54;3.67;;;3.37;;
62788;SDS011;66401;42.016;21.454;2023-05-07T15:46:20;3.70;;;3.40;;
62788;SDS011;66401;42.016;21.454;2023-05-07T15:48:48;4.27;;;3.37;;
62788;SDS011;66401;42.016;21.454;2023-05-07T15:51:13;3.40;;;3.20;;
62788;SDS011;66401;42.016;21.454;2023-05-07T15:53:39;5.17;;;3.53;;
62788;SDS011;66401;42.016;21.454;2023-05-07T15:56:05;3.87;;;3.57;;
62788;SDS011;66401;42.016;21.454;2023-05-07T15:58:31;4.27;;;3.93;;
62788;SDS011;66401;42.016;21.454;2023-05-07T16:00:56;3.77;;;3.47;;
62788;SDS011;66401;42.016;21.454;2023-05-07T16:03:22;4.93;;;3.40;;
62788;SDS011;66401;42.016;21.454;2023-05-07T16:05:48;4.77;;;3.57;;
62788;SDS011;66401;42.016;21.454;2023-05-07T16:08:13;3.53;;;3.33;;
62788;SDS011;66401;42.016;21.454;2023-05-07T16:10:39;3.57;;;3.27;;
62788;SDS011;66401;42.016;21.454;2023-05-07T16:13:04;4.03;;;3.67;;
62788;SDS011;66401;42.016;21.454;2023-05-07T16:15:31;3.83;;;3.53;;
62788;SDS011;66401;42.016;21.454;2023-05-07T16:17:56;3.90;;;3.40;;
62788;SDS011;66401;42.016;21.454;2023-05-07T16:20:26;4.83;;;4.03;;
62788;SDS011;66401;42.016;21.454;2023-05-07T16:22:54;4.50;;;3.57;;
62788;SDS011;66401;42.016;21.454;2023-05-07T16:25:20;3.57;;;3.30;;
62788;SDS011;66401;42.016;21.454;2023-05-07T16:27:46;4.07;;;3.67;;
62788;SDS011;66401;42.016;21.454;2023-05-07T16:30:11;4.03;;;3.67;;
62788;SDS011;66401;42.016;21.454;2023-05-07T16:32:37;4.40;;;4.00;;
62788;SDS011;66401;42.016;21.454;2023-05-07T16:35:02;3.93;;;3.63;;
62788;SDS011;66401;42.016;21.454;2023-05-07T16:37:30;4.70;;;4.30;;
62788;SDS011;66401;42.016;21.454;2023-05-07T16:39:59;4.57;;;4.27;;
62788;SDS011;66401;42.016;21.454;2023-05-07T16:42:25;4.37;;;3.80;;